createdAt,value
2018-06-03T00:02:08.309Z,3.57
2018-06-03T00:04:35.872Z,3.80
2018-06-03T00:07:03.424Z,3.50
2018-06-03T00:09:30.946Z,3.70
2018-06-03T00:11:58.467Z,3.87
2018-06-03T00:14:25.955Z,3.87
2018-06-03T00:16:54.319Z,4.00
2018-06-03T00:19:22.576Z,3.53
2018-06-03T00:21:51.016Z,4.10
2018-06-03T00:24:19.296Z,3.90
2018-06-03T00:26:47.643Z,3.70
2018-06-03T00:29:16.032Z,4.10
2018-06-03T00:31:43.558Z,3.40
2018-06-03T00:34:11.059Z,3.80
2018-06-03T00:36:45.026Z,3.77
2018-06-03T00:39:12.524Z,3.50
2018-06-03T00:41:40.106Z,3.47
2018-06-03T00:44:07.609Z,3.63
2018-06-03T00:46:35.109Z,3.20
2018-06-03T00:49:02.594Z,3.40
2018-06-03T00:51:30.161Z,3.60
2018-06-03T00:53:57.724Z,3.50
2018-06-03T00:56:38.600Z,3.70
2018-06-03T00:59:07.621Z,3.40
2018-06-03T01:01:35.972Z,3.60
2018-06-03T01:04:03.464Z,3.10
2018-06-03T01:06:31.723Z,3.53
2018-06-03T01:08:59.217Z,3.00
2018-06-03T01:11:27.516Z,3.33
2018-06-03T01:13:55.047Z,3.40
2018-06-03T01:16:22.600Z,3.63
2018-06-03T01:18:50.180Z,3.43
2018-06-03T01:21:17.696Z,3.30
2018-06-03T01:23:45.210Z,3.47
2018-06-03T01:26:12.698Z,3.20
2018-06-03T01:28:40.192Z,3.43
2018-06-03T01:31:07.678Z,3.20
2018-06-03T01:33:35.170Z,3.20
2018-06-03T01:36:03.457Z,3.10
2018-06-03T01:38:31.725Z,3.03
2018-06-03T01:40:59.242Z,3.17
2018-06-03T01:43:26.737Z,3.07
2018-06-03T01:45:54.222Z,3.37
2018-06-03T01:48:21.732Z,3.20
2018-06-03T01:50:49.224Z,3.10
2018-06-03T01:53:16.772Z,3.33
2018-06-03T01:55:44.264Z,3.20
2018-06-03T01:58:11.842Z,3.20
2018-06-03T02:00:39.394Z,3.00
2018-06-03T02:03:07.005Z,3.77
2018-06-03T02:05:35.262Z,3.13
2018-06-03T02:08:02.803Z,3.23
2018-06-03T02:10:30.385Z,3.17
2018-06-03T02:12:57.940Z,2.70
2018-06-03T02:15:25.470Z,2.77
2018-06-03T02:17:52.979Z,2.97
2018-06-03T02:20:20.543Z,3.07
2018-06-03T02:22:48.118Z,3.20
2018-06-03T02:25:15.658Z,3.23
2018-06-03T02:27:43.160Z,2.83
2018-06-03T02:30:11.407Z,3.33
2018-06-03T02:32:38.981Z,3.30
2018-06-03T02:35:06.552Z,3.50
2018-06-03T02:37:34.094Z,2.90
2018-06-03T02:40:01.679Z,2.90
2018-06-03T02:42:29.247Z,3.10
2018-06-03T02:44:56.744Z,2.97
2018-06-03T02:47:24.265Z,3.10
2018-06-03T02:49:51.847Z,3.03
2018-06-03T02:52:19.411Z,3.30
2018-06-03T02:54:46.975Z,3.17
2018-06-03T02:57:14.475Z,3.23
2018-06-03T02:59:41.997Z,3.00
2018-06-03T03:02:09.575Z,3.03
2018-06-03T03:04:37.065Z,3.03
2018-06-03T03:07:05.319Z,3.17
2018-06-03T03:09:32.814Z,2.80
2018-06-03T03:12:01.070Z,2.80
2018-06-03T03:14:28.646Z,3.30
2018-06-03T03:16:56.141Z,3.03
2018-06-03T03:19:23.657Z,2.80
2018-06-03T03:21:51.209Z,3.00
2018-06-03T03:24:18.700Z,3.60
2018-06-03T03:26:46.209Z,2.90
2018-06-03T03:29:13.716Z,2.87
2018-06-03T03:31:41.231Z,2.80
2018-06-03T03:34:08.723Z,3.23
2018-06-03T03:36:36.318Z,2.97
2018-06-03T03:39:03.835Z,2.83
2018-06-03T03:41:31.326Z,3.10
2018-06-03T03:43:58.903Z,2.93
2018-06-03T03:46:26.397Z,3.07
2018-06-03T03:48:54.803Z,4.90
2018-06-03T03:51:22.421Z,5.43
2018-06-03T03:53:49.919Z,16.23
2018-06-03T03:56:18.181Z,7.00
2018-06-03T03:58:45.700Z,10.63
2018-06-03T04:01:13.205Z,10.17
2018-06-03T04:03:40.769Z,8.83
2018-06-03T04:06:08.275Z,7.13
2018-06-03T04:08:35.772Z,7.00
2018-06-03T04:11:03.359Z,6.80
2018-06-03T04:13:30.928Z,6.10
2018-06-03T04:15:59.300Z,6.53
2018-06-03T04:18:26.888Z,6.53
2018-06-03T04:20:54.435Z,5.60
2018-06-03T04:23:21.992Z,4.73
2018-06-03T04:25:49.481Z,4.73
2018-06-03T04:28:16.996Z,4.07
2018-06-03T04:30:44.493Z,4.53
2018-06-03T04:33:12.008Z,4.13
2018-06-03T04:35:39.525Z,4.00
2018-06-03T04:38:07.015Z,4.00
2018-06-03T04:40:35.377Z,4.33
2018-06-03T04:43:02.931Z,4.33
2018-06-03T04:45:30.541Z,3.90
2018-06-03T04:47:58.805Z,3.90
2018-06-03T04:50:26.285Z,3.70
2018-06-03T04:52:54.643Z,3.80
2018-06-03T04:55:22.138Z,4.10
2018-06-03T04:57:50.403Z,3.47
2018-06-03T05:00:17.905Z,3.90
2018-06-03T05:02:45.427Z,3.53
2018-06-03T05:05:12.981Z,3.40
2018-06-03T05:07:40.553Z,3.77
2018-06-03T05:10:08.812Z,2.93
2018-06-03T05:12:36.317Z,3.33
2018-06-03T05:15:04.685Z,3.60
2018-06-03T05:17:32.961Z,3.40
2018-06-03T05:20:01.225Z,3.10
2018-06-03T05:22:28.811Z,3.30
2018-06-03T05:24:56.369Z,3.00
2018-06-03T05:27:23.943Z,3.60
2018-06-03T05:29:51.455Z,3.00
2018-06-03T05:32:18.934Z,2.90
2018-06-03T05:34:46.525Z,3.00
2018-06-03T05:37:14.011Z,2.90
2018-06-03T05:39:42.271Z,3.07
2018-06-03T05:42:09.780Z,2.93
2018-06-03T05:44:37.289Z,3.00
2018-06-03T05:47:04.791Z,2.67
2018-06-03T05:49:33.044Z,2.63
2018-06-03T05:52:00.535Z,3.30
2018-06-03T05:54:28.811Z,2.90
2018-06-03T05:56:56.366Z,3.03
2018-06-03T05:59:23.890Z,2.77
2018-06-03T06:01:51.397Z,3.00
2018-06-03T06:04:18.908Z,2.90
2018-06-03T06:06:46.419Z,2.87
2018-06-03T06:09:13.991Z,3.30
2018-06-03T06:11:41.509Z,3.00
2018-06-03T06:14:09.001Z,2.73
2018-06-03T06:16:36.579Z,2.80
2018-06-03T06:19:04.097Z,3.10
2018-06-03T06:21:31.598Z,2.77
2018-06-03T06:23:59.090Z,2.83
2018-06-03T06:26:26.581Z,2.83
2018-06-03T06:28:54.930Z,2.80
2018-06-03T06:31:22.490Z,3.00
2018-06-03T06:33:49.998Z,2.93
2018-06-03T06:36:17.515Z,3.00
2018-06-03T06:38:45.085Z,2.90
2018-06-03T06:41:12.660Z,2.80
2018-06-03T06:43:40.229Z,2.40
2018-06-03T06:46:07.785Z,2.53
2018-06-03T06:48:35.361Z,3.00
2018-06-03T06:51:02.870Z,2.83
2018-06-03T06:53:30.368Z,2.87
2018-06-03T06:55:57.945Z,2.60
2018-06-03T06:58:25.515Z,2.73
2018-06-03T07:00:53.010Z,2.70
2018-06-03T07:03:21.276Z,3.17
2018-06-03T07:05:49.548Z,3.03
2018-06-03T07:08:17.931Z,2.60
2018-06-03T07:10:45.431Z,2.57
2018-06-03T07:13:13.103Z,2.60
2018-06-03T07:15:40.627Z,2.80
2018-06-03T07:18:08.197Z,2.83
2018-06-03T07:20:35.781Z,2.90
2018-06-03T07:23:04.044Z,3.27
2018-06-03T07:25:31.605Z,2.97
2018-06-03T07:27:59.179Z,3.27
2018-06-03T07:30:26.681Z,3.10
2018-06-03T07:32:54.186Z,3.10
2018-06-03T07:35:21.672Z,3.00
2018-06-03T07:37:49.234Z,3.03
2018-06-03T07:40:16.812Z,3.10
2018-06-03T07:42:44.368Z,3.70
2018-06-03T07:45:11.937Z,2.93
2018-06-03T07:47:39.441Z,2.80
2018-06-03T07:50:06.931Z,3.10
2018-06-03T07:52:34.532Z,2.90
2018-06-03T07:55:02.118Z,3.13
2018-06-03T07:57:30.412Z,2.93
2018-06-03T07:59:58.660Z,2.70
2018-06-03T08:02:26.160Z,3.00
2018-06-03T08:04:53.655Z,2.90
2018-06-03T08:07:21.745Z,2.77
2018-06-03T08:09:48.673Z,2.50
2018-06-03T08:12:16.162Z,2.60
2018-06-03T08:14:43.680Z,2.60
2018-06-03T08:17:11.179Z,2.30
2018-06-03T08:19:38.669Z,2.33
2018-06-03T08:22:06.185Z,2.30
2018-06-03T08:24:33.688Z,2.30
2018-06-03T08:27:01.426Z,2.30
2018-06-03T08:29:28.942Z,2.30
2018-06-03T08:31:56.448Z,2.70
2018-06-03T08:34:24.071Z,2.40
2018-06-03T08:36:51.570Z,2.53
2018-06-03T08:39:19.078Z,2.63
2018-06-03T08:41:46.660Z,2.70
2018-06-03T08:44:14.240Z,2.37
2018-06-03T08:46:41.756Z,1.80
2018-06-03T08:49:09.253Z,1.97
2018-06-03T08:51:36.825Z,2.40
2018-06-03T08:54:04.349Z,2.33
2018-06-03T08:56:31.949Z,2.10
2018-06-03T08:58:59.530Z,2.30
2018-06-03T09:01:27.090Z,2.33
2018-06-03T09:03:54.592Z,2.43
2018-06-03T09:06:22.081Z,3.27
2018-06-03T09:08:49.682Z,2.17
2018-06-03T09:11:18.084Z,2.10
2018-06-03T09:13:46.346Z,2.43
2018-06-03T09:16:13.875Z,2.20
2018-06-03T09:18:41.464Z,2.27
2018-06-03T09:21:08.968Z,2.40
2018-06-03T09:23:37.285Z,2.20
2018-06-03T09:26:04.789Z,2.43
2018-06-03T09:28:32.356Z,2.30
2018-06-03T09:31:06.417Z,2.07
2018-06-03T09:33:33.928Z,2.40
2018-06-03T09:36:01.517Z,2.27
2018-06-03T09:38:29.784Z,2.47
2018-06-03T09:40:57.287Z,2.30
2018-06-03T09:43:24.800Z,2.23
2018-06-03T09:45:52.388Z,2.53
2018-06-03T09:48:20.665Z,2.40
2018-06-03T09:50:48.228Z,2.83
2018-06-03T09:53:15.779Z,2.40
2018-06-03T09:55:43.250Z,2.20
2018-06-03T09:58:10.820Z,2.50
2018-06-03T10:00:38.332Z,2.30
2018-06-03T10:03:05.827Z,2.57
2018-06-03T10:05:33.316Z,2.43
2018-06-03T10:08:01.579Z,2.30
2018-06-03T10:10:29.159Z,2.20
2018-06-03T10:12:56.644Z,2.33
2018-06-03T10:15:25.019Z,2.70
2018-06-03T10:17:52.578Z,3.07
2018-06-03T10:20:20.137Z,2.70
2018-06-03T10:22:47.716Z,2.60
2018-06-03T10:25:15.219Z,3.10
2018-06-03T10:27:42.721Z,2.60
2018-06-03T10:30:10.200Z,2.70
2018-06-03T10:32:38.467Z,2.60
2018-06-03T10:35:06.053Z,2.80
2018-06-03T10:37:33.610Z,2.80
2018-06-03T10:40:01.200Z,2.80
2018-06-03T10:42:29.561Z,2.53
2018-06-03T10:44:57.049Z,3.00
2018-06-03T10:47:25.334Z,2.67
2018-06-03T10:49:53.671Z,2.87
2018-06-03T10:52:21.221Z,3.10
2018-06-03T10:54:48.720Z,2.77
2018-06-03T10:57:16.238Z,5.93
2018-06-03T10:59:43.883Z,11.70
2018-06-03T11:02:12.270Z,27.50
2018-06-03T11:04:40.590Z,13.00
2018-06-03T11:07:08.101Z,11.10
2018-06-03T11:09:35.669Z,7.43
2018-06-03T11:12:03.943Z,6.43
2018-06-03T11:14:31.430Z,5.50
2018-06-03T11:16:59.779Z,6.50
2018-06-03T11:19:27.368Z,7.03
2018-06-03T11:21:55.727Z,5.53
2018-06-03T11:24:23.249Z,5.50
2018-06-03T11:26:50.764Z,4.27
2018-06-03T11:29:18.323Z,3.80
2018-06-03T11:31:45.897Z,2.93
2018-06-03T11:34:13.387Z,3.03
2018-06-03T11:36:41.737Z,2.70
2018-06-03T11:39:09.237Z,2.60
2018-06-03T11:41:36.737Z,2.30
2018-06-03T11:44:04.233Z,2.10
2018-06-03T11:46:31.815Z,2.17
2018-06-03T11:48:59.329Z,2.10
2018-06-03T11:51:26.931Z,2.20
2018-06-03T11:53:54.443Z,2.20
2018-06-03T11:56:21.933Z,2.00
2018-06-03T11:59:46.457Z,2.13
2018-06-03T12:02:17.163Z,2.10
2018-06-03T12:04:45.545Z,2.00
2018-06-03T12:07:13.877Z,2.07
2018-06-03T12:09:42.192Z,1.77
2018-06-03T12:12:10.498Z,2.00
2018-06-03T12:14:38.804Z,2.10
2018-06-03T12:17:07.111Z,2.37
2018-06-03T12:19:35.459Z,2.23
2018-06-03T12:22:03.744Z,2.20
2018-06-03T12:24:32.025Z,2.20
2018-06-03T12:27:00.413Z,1.80
2018-06-03T12:29:28.693Z,2.77
2018-06-03T12:31:57.003Z,2.30
2018-06-03T12:34:25.416Z,2.10
2018-06-03T12:36:53.733Z,2.17
2018-06-03T12:39:22.049Z,2.20
2018-06-03T12:41:50.344Z,1.83
2018-06-03T12:44:18.671Z,2.40
2018-06-03T12:46:46.962Z,2.20
2018-06-03T12:49:15.293Z,2.33
2018-06-03T12:51:43.584Z,2.20
2018-06-03T12:54:12.042Z,2.23
2018-06-03T12:56:40.345Z,2.10
2018-06-03T12:59:08.693Z,2.13
2018-06-03T13:01:36.981Z,2.13
2018-06-03T13:04:05.309Z,2.30
2018-06-03T13:06:33.595Z,2.10
2018-06-03T13:09:02.838Z,2.00
2018-06-03T13:11:31.223Z,2.13
2018-06-03T13:13:59.522Z,2.13
2018-06-03T13:16:27.822Z,2.00
2018-06-03T13:18:56.105Z,2.77
2018-06-03T13:21:24.414Z,2.20
2018-06-03T13:23:52.701Z,2.40
2018-06-03T13:26:20.757Z,2.33
2018-06-03T13:28:49.061Z,2.47
2018-06-03T13:31:17.091Z,2.40
2018-06-03T13:33:45.384Z,2.13
2018-06-03T13:36:13.670Z,3.77
2018-06-03T13:38:41.959Z,2.23
2018-06-03T13:41:10.347Z,2.30
2018-06-03T13:43:38.630Z,2.20
2018-06-03T13:46:06.952Z,2.17
2018-06-03T13:48:35.262Z,2.50
2018-06-03T13:51:03.528Z,2.30
2018-06-03T13:53:31.828Z,2.37
2018-06-03T13:56:00.192Z,2.30
2018-06-03T13:58:28.607Z,2.10
2018-06-03T14:00:56.638Z,2.00
2018-06-03T14:03:24.927Z,2.13
2018-06-03T14:05:53.214Z,2.73
2018-06-03T14:08:21.502Z,2.00
2018-06-03T14:10:49.915Z,2.10
2018-06-03T14:13:18.226Z,1.90
2018-06-03T14:15:46.543Z,2.30
2018-06-03T14:18:14.865Z,2.27
2018-06-03T14:20:43.145Z,2.00
2018-06-03T14:23:11.459Z,2.10
2018-06-03T14:25:39.748Z,2.00
2018-06-03T14:28:08.079Z,1.90
2018-06-03T14:30:36.379Z,2.20
2018-06-03T14:33:04.685Z,2.00
2018-06-03T14:35:33.078Z,1.90
2018-06-03T14:38:01.395Z,2.00
2018-06-03T14:40:29.709Z,2.23
2018-06-03T14:42:57.731Z,2.00
2018-06-03T14:45:26.033Z,2.27
2018-06-03T14:47:54.377Z,2.00
2018-06-03T14:50:22.713Z,2.17
2018-06-03T14:52:50.997Z,1.83
2018-06-03T14:55:19.393Z,2.13
2018-06-03T14:57:47.716Z,1.90
2018-06-03T15:00:15.987Z,2.10
2018-06-03T15:02:44.292Z,1.90
2018-06-03T15:05:12.562Z,2.17
2018-06-03T15:07:40.871Z,1.93
2018-06-03T15:10:09.336Z,2.13
2018-06-03T15:12:37.667Z,1.90
2018-06-03T15:15:06.142Z,1.80
2018-06-03T15:17:34.468Z,1.87
2018-06-03T15:20:02.776Z,2.00
2018-06-03T15:22:31.068Z,1.77
2018-06-03T15:24:59.434Z,1.63
2018-06-03T15:27:27.723Z,1.70
2018-06-03T15:29:55.749Z,1.77
2018-06-03T15:32:24.069Z,1.90
2018-06-03T15:34:52.183Z,1.60
2018-06-03T15:37:20.516Z,1.67
2018-06-03T15:39:48.812Z,1.90
2018-06-03T15:42:17.115Z,2.13
2018-06-03T15:44:45.444Z,2.47
2018-06-03T15:47:13.748Z,2.00
2018-06-03T15:49:42.124Z,1.80
2018-06-03T15:52:10.156Z,2.03
2018-06-03T15:54:38.150Z,1.80
2018-06-03T15:57:06.462Z,2.00
2018-06-03T15:59:34.778Z,1.53
2018-06-03T16:02:03.135Z,1.73
2018-06-03T16:04:31.425Z,1.70
2018-06-03T16:06:59.453Z,1.90
2018-06-03T16:09:27.486Z,1.70
2018-06-03T16:11:55.808Z,1.50
2018-06-03T16:14:24.235Z,1.70
2018-06-03T16:16:52.528Z,1.70
2018-06-03T16:19:20.825Z,1.87
2018-06-03T16:21:49.186Z,1.90
2018-06-03T16:24:17.483Z,1.77
2018-06-03T16:26:45.785Z,1.77
2018-06-03T16:29:14.061Z,1.73
2018-06-03T16:31:42.378Z,1.77
2018-06-03T16:34:10.648Z,1.70
2018-06-03T16:36:38.950Z,1.60
2018-06-03T16:39:07.742Z,1.70
2018-06-03T16:41:36.160Z,1.90
2018-06-03T16:44:04.472Z,1.90
2018-06-03T16:46:32.758Z,2.00
2018-06-03T16:49:01.040Z,1.93
2018-06-03T16:51:29.343Z,1.70
2018-06-03T16:53:57.659Z,1.77
2018-06-03T16:56:25.990Z,1.83
2018-06-03T16:58:54.267Z,1.70
2018-06-03T17:01:22.601Z,1.90
2018-06-03T17:03:50.907Z,1.70
2018-06-03T17:06:19.207Z,2.23
2018-06-03T17:08:47.490Z,1.67
2018-06-03T17:11:15.834Z,2.13
2018-06-03T17:13:44.126Z,1.70
2018-06-03T17:16:12.181Z,1.83
2018-06-03T17:18:40.487Z,2.00
2018-06-03T17:21:08.807Z,1.90
2018-06-03T17:23:37.089Z,1.80
2018-06-03T17:26:05.374Z,2.20
2018-06-03T17:28:33.681Z,2.30
2018-06-03T17:31:01.988Z,1.80
2018-06-03T17:33:30.287Z,1.67
2018-06-03T17:35:58.575Z,1.80
2018-06-03T17:38:26.876Z,1.90
2018-06-03T17:40:55.240Z,1.70
2018-06-03T17:43:23.264Z,1.90
2018-06-03T17:45:55.140Z,2.10
2018-06-03T17:48:23.816Z,1.83
2018-06-03T17:50:52.323Z,2.10
2018-06-03T17:53:20.966Z,2.20
2018-06-03T17:55:49.323Z,2.00
2018-06-03T17:58:17.668Z,2.30
2018-06-03T18:00:46.026Z,2.30
2018-06-03T18:03:14.430Z,18.47
2018-06-03T18:05:42.530Z,5.40
2018-06-03T18:08:10.842Z,5.27
2018-06-03T18:10:39.139Z,4.70
2018-06-03T18:13:07.688Z,3.90
2018-06-03T18:15:35.974Z,3.30
2018-06-03T18:18:04.366Z,3.40
2018-06-03T18:20:32.698Z,3.20
2018-06-03T18:23:01.034Z,3.37
2018-06-03T18:25:29.337Z,3.03
2018-06-03T18:27:57.638Z,2.83
2018-06-03T18:30:25.925Z,2.53
2018-06-03T18:32:54.248Z,2.77
2018-06-03T18:35:22.736Z,2.57
2018-06-03T18:37:51.198Z,2.40
2018-06-03T18:40:19.557Z,2.33
2018-06-03T18:42:47.869Z,2.87
2018-06-03T18:45:15.893Z,2.50
2018-06-03T18:47:44.235Z,2.50
2018-06-03T18:50:12.542Z,2.40
2018-06-03T18:52:40.870Z,2.90
2018-06-03T18:55:09.281Z,2.50
2018-06-03T18:57:37.638Z,2.57
2018-06-03T19:00:06.001Z,2.60
2018-06-03T19:02:34.359Z,2.30
2018-06-03T19:05:02.727Z,2.20
2018-06-03T19:07:31.253Z,2.30
2018-06-03T19:09:59.763Z,2.40
2018-06-03T19:12:28.150Z,2.27
2018-06-03T19:14:56.471Z,2.47
2018-06-03T19:17:24.817Z,2.30
2018-06-03T19:19:53.197Z,2.23
2018-06-03T19:22:21.535Z,2.60
2018-06-03T19:24:49.891Z,2.70
2018-06-03T19:27:17.964Z,3.10
2018-06-03T19:29:46.061Z,3.73
2018-06-03T19:32:14.377Z,9.00
2018-06-03T19:34:42.707Z,11.43
2018-06-03T19:37:10.941Z,6.30
2018-06-03T19:39:39.326Z,4.30
2018-06-03T19:42:07.664Z,4.17
2018-06-03T19:44:36.372Z,3.10
2018-06-03T19:47:05.103Z,3.10
2018-06-03T19:49:33.175Z,3.10
2018-06-03T19:52:01.751Z,3.43
2018-06-03T19:54:29.823Z,3.07
2018-06-03T19:56:58.183Z,3.13
2018-06-03T19:59:26.496Z,2.80
2018-06-03T20:01:54.807Z,2.87
2018-06-03T20:04:23.138Z,2.93
2018-06-03T20:06:51.610Z,2.60
2018-06-03T20:09:19.941Z,2.63
2018-06-03T20:11:48.445Z,2.80
2018-06-03T20:14:16.751Z,2.50
2018-06-03T20:16:45.156Z,2.77
2018-06-03T20:19:13.532Z,2.73
2018-06-03T20:21:41.914Z,2.87
2018-06-03T20:24:10.406Z,2.80
2018-06-03T20:26:38.763Z,2.63
2018-06-03T20:29:07.155Z,2.60
2018-06-03T20:31:35.552Z,3.43
2018-06-03T20:34:03.632Z,2.60
2018-06-03T20:36:31.939Z,2.80
2018-06-03T20:39:00.303Z,2.90
2018-06-03T20:41:28.484Z,2.97
2018-06-03T20:43:56.869Z,3.10
2018-06-03T20:46:25.302Z,2.60
2018-06-03T20:48:53.442Z,2.90
2018-06-03T20:51:21.767Z,2.67
2018-06-03T20:53:50.129Z,3.00
2018-06-03T20:56:18.215Z,2.67
2018-06-03T20:58:46.693Z,2.63
2018-06-03T21:01:15.052Z,2.70
2018-06-03T21:03:43.469Z,2.60
2018-06-03T21:06:11.792Z,2.97
2018-06-03T21:08:40.183Z,2.70
2018-06-03T21:11:08.490Z,2.60
2018-06-03T21:13:36.822Z,2.73
2018-06-03T21:16:05.118Z,2.60
2018-06-03T21:18:33.443Z,2.60
2018-06-03T21:21:01.770Z,2.70
2018-06-03T21:23:30.058Z,2.70
2018-06-03T21:25:58.333Z,2.90
2018-06-03T21:28:26.644Z,2.83
2018-06-03T21:30:55.072Z,3.07
2018-06-03T21:33:23.382Z,3.00
2018-06-03T21:35:51.673Z,2.80
2018-06-03T21:38:19.981Z,2.87
2018-06-03T21:40:48.331Z,2.80
2018-06-03T21:43:16.736Z,2.70
2018-06-03T21:45:45.219Z,2.97
2018-06-03T21:48:13.551Z,2.90
2018-06-03T21:50:41.989Z,2.87
2018-06-03T21:53:10.297Z,2.97
2018-06-03T21:55:38.593Z,2.70
2018-06-03T21:58:06.915Z,3.07
2018-06-03T22:00:35.212Z,2.67
2018-06-03T22:03:03.500Z,3.30
2018-06-03T22:05:31.852Z,3.00
2018-06-03T22:08:00.137Z,2.80
2018-06-03T22:10:28.460Z,3.20
2018-06-03T22:12:56.759Z,3.27
2018-06-03T22:15:24.841Z,2.80
2018-06-03T22:17:52.930Z,2.90
2018-06-03T22:20:21.217Z,2.77
2018-06-03T22:22:49.517Z,2.87
2018-06-03T22:25:17.859Z,2.90
2018-06-03T22:27:46.235Z,2.80
2018-06-03T22:30:14.529Z,2.67
2018-06-03T22:32:42.680Z,2.70
2018-06-03T22:35:11.035Z,2.80
2018-06-03T22:37:39.368Z,2.67
2018-06-03T22:40:07.665Z,3.00
2018-06-03T22:42:36.011Z,2.83
2018-06-03T22:45:04.434Z,2.57
2018-06-03T22:47:32.770Z,2.87
2018-06-03T22:50:01.177Z,2.73
2018-06-03T22:52:29.519Z,2.80
2018-06-03T22:54:57.823Z,2.60
2018-06-03T22:57:47.531Z,2.80
2018-06-03T23:00:37.183Z,2.47
2018-06-03T23:03:10.867Z,2.77
2018-06-03T23:05:39.211Z,2.83
2018-06-03T23:08:07.533Z,2.90
2018-06-03T23:10:35.872Z,2.83
2018-06-03T23:13:04.183Z,2.93
2018-06-03T23:15:32.617Z,2.80
2018-06-03T23:18:00.871Z,2.80
2018-06-03T23:20:29.159Z,2.67
2018-06-03T23:22:57.466Z,2.83
2018-06-03T23:25:25.847Z,2.90
2018-06-03T23:27:54.140Z,3.00
2018-06-03T23:30:22.411Z,2.80
2018-06-03T23:32:50.694Z,2.87
2018-06-03T23:35:19.087Z,2.60
2018-06-03T23:37:47.375Z,3.00
2018-06-03T23:40:15.440Z,2.50
2018-06-03T23:42:43.729Z,2.80
2018-06-03T23:45:12.064Z,2.73
2018-06-03T23:47:40.357Z,3.00
2018-06-03T23:50:08.656Z,2.87
2018-06-03T23:52:36.923Z,2.80
2018-06-03T23:55:05.208Z,2.87
2018-06-03T23:57:33.498Z,2.80
